sensor_id;sensor_type;location;lat;lon;timestamp;P1;durP1;ratioP1;P2;durP2;ratioP2
10979;SDS011;5543;51.734;8.744;2022-07-03T00:01:26;160.18;;;147.60;;
10979;SDS011;5543;51.734;8.744;2022-07-03T00:03:54;163.48;;;149.25;;
10979;SDS011;5543;51.734;8.744;2022-07-03T00:06:23;162.90;;;149.95;;
10979;SDS011;5543;51.734;8.744;2022-07-03T00:08:52;167.68;;;154.32;;
10979;SDS011;5543;51.734;8.744;2022-07-03T00:11:20;172.85;;;158.15;;
10979;SDS011;5543;51.734;8.744;2022-07-03T00:13:51;182.65;;;167.65;;
10979;SDS011;5543;51.734;8.744;2022-07-03T00:16:19;180.77;;;165.60;;
10979;SDS011;5543;51.734;8.744;2022-07-03T00:18:47;170.02;;;155.13;;
10979;SDS011;5543;51.734;8.744;2022-07-03T00:21:16;215.27;;;197.55;;
10979;SDS011;5543;51.734;8.744;2022-07-03T00:23:52;227.32;;;207.45;;
10979;SDS011;5543;51.734;8.744;2022-07-03T00:26:23;259.38;;;237.65;;
10979;SDS011;5543;51.734;8.744;2022-07-03T00:28:56;281.65;;;258.50;;
10979;SDS011;5543;51.734;8.744;2022-07-03T00:31:27;284.13;;;259.08;;
10979;SDS011;5543;51.734;8.744;2022-07-03T00:33:57;291.70;;;267.92;;
10979;SDS011;5543;51.734;8.744;2022-07-03T00:36:26;266.00;;;243.20;;
10979;SDS011;5543;51.734;8.744;2022-07-03T00:38:56;274.45;;;251.43;;
10979;SDS011;5543;51.734;8.744;2022-07-03T00:41:25;226.77;;;206.68;;
10979;SDS011;5543;51.734;8.744;2022-07-03T00:43:56;258.15;;;236.15;;
10979;SDS011;5543;51.734;8.744;2022-07-03T00:46:26;333.77;;;305.52;;
10979;SDS011;5543;51.734;8.744;2022-07-03T00:48:55;301.15;;;275.63;;
10979;SDS011;5543;51.734;8.744;2022-07-03T00:51:26;348.50;;;318.15;;
10979;SDS011;5543;51.734;8.744;2022-07-03T00:53:57;339.52;;;309.20;;
10979;SDS011;5543;51.734;8.744;2022-07-03T00:56:26;335.17;;;305.88;;
10979;SDS011;5543;51.734;8.744;2022-07-03T00:58:57;333.30;;;304.05;;
10979;SDS011;5543;51.734;8.744;2022-07-03T01:01:30;280.38;;;258.00;;
10979;SDS011;5543;51.734;8.744;2022-07-03T01:04:04;321.45;;;293.65;;
10979;SDS011;5543;51.734;8.744;2022-07-03T01:06:46;368.42;;;336.20;;
10979;SDS011;5543;51.734;8.744;2022-07-03T01:09:29;284.52;;;259.25;;
10979;SDS011;5543;51.734;8.744;2022-07-03T01:12:03;266.52;;;242.85;;
10979;SDS011;5543;51.734;8.744;2022-07-03T01:14:41;242.63;;;221.73;;
10979;SDS011;5543;51.734;8.744;2022-07-03T01:17:18;312.45;;;284.70;;
10979;SDS011;5543;51.734;8.744;2022-07-03T01:19:53;307.15;;;280.52;;
10979;SDS011;5543;51.734;8.744;2022-07-03T01:22:32;298.45;;;273.10;;
10979;SDS011;5543;51.734;8.744;2022-07-03T01:25:15;275.83;;;251.70;;
10979;SDS011;5543;51.734;8.744;2022-07-03T01:28:05;323.38;;;296.50;;
10979;SDS011;5543;51.734;8.744;2022-07-03T01:30:38;424.67;;;387.48;;
10979;SDS011;5543;51.734;8.744;2022-07-03T01:33:15;331.13;;;304.42;;
10979;SDS011;5543;51.734;8.744;2022-07-03T01:35:47;329.05;;;301.33;;
10979;SDS011;5543;51.734;8.744;2022-07-03T01:38:23;393.60;;;359.77;;
10979;SDS011;5543;51.734;8.744;2022-07-03T01:40:54;376.15;;;342.42;;
10979;SDS011;5543;51.734;8.744;2022-07-03T01:43:27;336.92;;;307.77;;
10979;SDS011;5543;51.734;8.744;2022-07-03T01:45:57;342.27;;;311.30;;
10979;SDS011;5543;51.734;8.744;2022-07-03T01:48:27;370.30;;;336.63;;
10979;SDS011;5543;51.734;8.744;2022-07-03T01:50:57;330.08;;;300.38;;
10979;SDS011;5543;51.734;8.744;2022-07-03T01:53:26;316.38;;;290.13;;
10979;SDS011;5543;51.734;8.744;2022-07-03T01:55:58;319.50;;;290.05;;
10979;SDS011;5543;51.734;8.744;2022-07-03T01:58:29;307.10;;;279.85;;
10979;SDS011;5543;51.734;8.744;2022-07-03T02:00:59;347.88;;;318.50;;
10979;SDS011;5543;51.734;8.744;2022-07-03T02:03:30;342.52;;;311.35;;
10979;SDS011;5543;51.734;8.744;2022-07-03T02:06:02;356.83;;;324.48;;
10979;SDS011;5543;51.734;8.744;2022-07-03T02:08:36;418.52;;;383.05;;
10979;SDS011;5543;51.734;8.744;2022-07-03T02:11:33;660.67;;;599.47;;
10979;SDS011;5543;51.734;8.744;2022-07-03T02:14:07;494.80;;;451.10;;
10979;SDS011;5543;51.734;8.744;2022-07-03T02:16:54;444.00;;;403.83;;
10979;SDS011;5543;51.734;8.744;2022-07-03T02:19:30;553.47;;;506.23;;
10979;SDS011;5543;51.734;8.744;2022-07-03T02:22:05;462.02;;;420.45;;
10979;SDS011;5543;51.734;8.744;2022-07-03T02:24:37;493.00;;;450.90;;
10979;SDS011;5543;51.734;8.744;2022-07-03T02:27:12;430.80;;;392.98;;
10979;SDS011;5543;51.734;8.744;2022-07-03T02:29:46;431.70;;;393.73;;
10979;SDS011;5543;51.734;8.744;2022-07-03T02:32:20;469.52;;;427.70;;
10979;SDS011;5543;51.734;8.744;2022-07-03T02:34:52;475.35;;;432.85;;
10979;SDS011;5543;51.734;8.744;2022-07-03T02:37:28;465.42;;;424.85;;
10979;SDS011;5543;51.734;8.744;2022-07-03T02:40:00;447.20;;;407.98;;
10979;SDS011;5543;51.734;8.744;2022-07-03T02:42:35;513.78;;;468.35;;
10979;SDS011;5543;51.734;8.744;2022-07-03T02:45:11;485.15;;;441.05;;
10979;SDS011;5543;51.734;8.744;2022-07-03T02:47:45;472.75;;;432.17;;
10979;SDS011;5543;51.734;8.744;2022-07-03T02:50:20;606.53;;;551.30;;
10979;SDS011;5543;51.734;8.744;2022-07-03T02:52:54;543.58;;;495.23;;
10979;SDS011;5543;51.734;8.744;2022-07-03T02:55:39;670.05;;;609.40;;
10979;SDS011;5543;51.734;8.744;2022-07-03T03:01:06;768.45;;;695.17;;
10979;SDS011;5543;51.734;8.744;2022-07-03T03:03:37;620.45;;;563.58;;
10979;SDS011;5543;51.734;8.744;2022-07-03T03:06:10;595.28;;;539.75;;
10979;SDS011;5543;51.734;8.744;2022-07-03T03:08:42;681.53;;;618.05;;
10979;SDS011;5543;51.734;8.744;2022-07-03T03:11:16;673.75;;;611.72;;
10979;SDS011;5543;51.734;8.744;2022-07-03T03:13:53;709.65;;;644.20;;
10979;SDS011;5543;51.734;8.744;2022-07-03T03:16:25;758.78;;;686.25;;
10979;SDS011;5543;51.734;8.744;2022-07-03T03:18:54;699.78;;;634.40;;
10979;SDS011;5543;51.734;8.744;2022-07-03T03:21:23;611.92;;;555.72;;
10979;SDS011;5543;51.734;8.744;2022-07-03T03:23:55;548.10;;;498.20;;
10979;SDS011;5543;51.734;8.744;2022-07-03T03:26:26;524.92;;;476.85;;
10979;SDS011;5543;51.734;8.744;2022-07-03T03:28:57;602.47;;;548.42;;
10979;SDS011;5543;51.734;8.744;2022-07-03T03:31:28;501.23;;;455.65;;
10979;SDS011;5543;51.734;8.744;2022-07-03T03:33:56;551.33;;;501.45;;
10979;SDS011;5543;51.734;8.744;2022-07-03T03:36:26;546.58;;;496.20;;
10979;SDS011;5543;51.734;8.744;2022-07-03T03:38:56;538.03;;;490.10;;
10979;SDS011;5543;51.734;8.744;2022-07-03T03:41:25;475.00;;;434.05;;
10979;SDS011;5543;51.734;8.744;2022-07-03T03:43:53;441.65;;;403.23;;
10979;SDS011;5543;51.734;8.744;2022-07-03T03:46:22;503.58;;;459.52;;
10979;SDS011;5543;51.734;8.744;2022-07-03T03:48:51;417.60;;;380.98;;
10979;SDS011;5543;51.734;8.744;2022-07-03T03:51:20;489.38;;;443.27;;
10979;SDS011;5543;51.734;8.744;2022-07-03T03:53:48;496.15;;;451.98;;
10979;SDS011;5543;51.734;8.744;2022-07-03T03:56:18;479.08;;;434.38;;
10979;SDS011;5543;51.734;8.744;2022-07-03T03:58:46;461.30;;;422.17;;
10979;SDS011;5543;51.734;8.744;2022-07-03T04:01:14;470.10;;;427.65;;
10979;SDS011;5543;51.734;8.744;2022-07-03T04:03:43;475.50;;;431.55;;
10979;SDS011;5543;51.734;8.744;2022-07-03T04:06:12;438.83;;;397.13;;
10979;SDS011;5543;51.734;8.744;2022-07-03T04:08:41;533.05;;;484.50;;
10979;SDS011;5543;51.734;8.744;2022-07-03T04:11:09;626.65;;;569.50;;
10979;SDS011;5543;51.734;8.744;2022-07-03T04:13:37;583.40;;;530.72;;
10979;SDS011;5543;51.734;8.744;2022-07-03T04:16:05;607.05;;;549.33;;
10979;SDS011;5543;51.734;8.744;2022-07-03T04:18:34;621.40;;;562.42;;
10979;SDS011;5543;51.734;8.744;2022-07-03T04:21:02;518.85;;;472.27;;
10979;SDS011;5543;51.734;8.744;2022-07-03T04:23:32;548.72;;;498.83;;
10979;SDS011;5543;51.734;8.744;2022-07-03T04:26:03;570.08;;;519.08;;
10979;SDS011;5543;51.734;8.744;2022-07-03T04:28:39;603.15;;;548.95;;
10979;SDS011;5543;51.734;8.744;2022-07-03T04:31:08;671.05;;;608.40;;
10979;SDS011;5543;51.734;8.744;2022-07-03T04:33:36;524.85;;;478.17;;
10979;SDS011;5543;51.734;8.744;2022-07-03T04:36:12;577.95;;;525.67;;
10979;SDS011;5543;51.734;8.744;2022-07-03T04:38:41;642.05;;;583.30;;
10979;SDS011;5543;51.734;8.744;2022-07-03T04:41:10;610.15;;;555.58;;
10979;SDS011;5543;51.734;8.744;2022-07-03T04:43:38;555.85;;;507.60;;
10979;SDS011;5543;51.734;8.744;2022-07-03T04:46:06;468.50;;;426.52;;
10979;SDS011;5543;51.734;8.744;2022-07-03T04:48:34;460.02;;;417.95;;
10979;SDS011;5543;51.734;8.744;2022-07-03T04:51:03;410.83;;;375.20;;
10979;SDS011;5543;51.734;8.744;2022-07-03T04:53:31;427.40;;;388.55;;
10979;SDS011;5543;51.734;8.744;2022-07-03T04:56:01;323.63;;;297.60;;
10979;SDS011;5543;51.734;8.744;2022-07-03T04:58:29;390.40;;;357.23;;
10979;SDS011;5543;51.734;8.744;2022-07-03T05:00:58;316.77;;;290.23;;
10979;SDS011;5543;51.734;8.744;2022-07-03T05:03:26;370.65;;;340.13;;
10979;SDS011;5543;51.734;8.744;2022-07-03T05:05:54;326.42;;;299.42;;
10979;SDS011;5543;51.734;8.744;2022-07-03T05:08:22;340.20;;;311.95;;
10979;SDS011;5543;51.734;8.744;2022-07-03T05:10:51;307.92;;;282.98;;
10979;SDS011;5543;51.734;8.744;2022-07-03T05:13:20;258.40;;;239.27;;
10979;SDS011;5543;51.734;8.744;2022-07-03T05:15:48;227.40;;;208.75;;
10979;SDS011;5543;51.734;8.744;2022-07-03T05:18:17;233.63;;;215.48;;
10979;SDS011;5543;51.734;8.744;2022-07-03T05:20:47;201.93;;;186.52;;
10979;SDS011;5543;51.734;8.744;2022-07-03T05:23:15;226.77;;;208.35;;
10979;SDS011;5543;51.734;8.744;2022-07-03T05:25:44;182.07;;;167.18;;
10979;SDS011;5543;51.734;8.744;2022-07-03T05:28:12;183.85;;;169.95;;
10979;SDS011;5543;51.734;8.744;2022-07-03T05:30:41;135.88;;;124.93;;
10979;SDS011;5543;51.734;8.744;2022-07-03T05:33:10;118.10;;;109.15;;
10979;SDS011;5543;51.734;8.744;2022-07-03T05:35:38;127.57;;;117.55;;
10979;SDS011;5543;51.734;8.744;2022-07-03T05:38:06;119.75;;;110.82;;
10979;SDS011;5543;51.734;8.744;2022-07-03T05:40:34;110.55;;;102.05;;
10979;SDS011;5543;51.734;8.744;2022-07-03T05:43:02;110.65;;;101.32;;
10979;SDS011;5543;51.734;8.744;2022-07-03T05:45:30;106.97;;;98.78;;
10979;SDS011;5543;51.734;8.744;2022-07-03T05:47:59;81.78;;;75.13;;
10979;SDS011;5543;51.734;8.744;2022-07-03T05:50:28;90.95;;;83.28;;
10979;SDS011;5543;51.734;8.744;2022-07-03T05:52:56;99.45;;;91.45;;
10979;SDS011;5543;51.734;8.744;2022-07-03T05:55:25;101.32;;;93.15;;
10979;SDS011;5543;51.734;8.744;2022-07-03T05:57:53;92.25;;;84.20;;
10979;SDS011;5543;51.734;8.744;2022-07-03T06:00:21;94.00;;;86.72;;
10979;SDS011;5543;51.734;8.744;2022-07-03T06:02:49;82.05;;;75.45;;
10979;SDS011;5543;51.734;8.744;2022-07-03T06:05:19;89.80;;;82.13;;
10979;SDS011;5543;51.734;8.744;2022-07-03T06:07:47;75.03;;;69.55;;
10979;SDS011;5543;51.734;8.744;2022-07-03T06:10:16;72.45;;;66.13;;
10979;SDS011;5543;51.734;8.744;2022-07-03T06:12:44;70.10;;;64.18;;
10979;SDS011;5543;51.734;8.744;2022-07-03T06:15:13;77.53;;;71.13;;
10979;SDS011;5543;51.734;8.744;2022-07-03T06:17:41;75.32;;;69.10;;
10979;SDS011;5543;51.734;8.744;2022-07-03T06:20:10;74.85;;;69.00;;
10979;SDS011;5543;51.734;8.744;2022-07-03T06:22:41;76.60;;;70.50;;
10979;SDS011;5543;51.734;8.744;2022-07-03T06:25:09;78.35;;;72.05;;
10979;SDS011;5543;51.734;8.744;2022-07-03T06:27:38;79.75;;;73.45;;
10979;SDS011;5543;51.734;8.744;2022-07-03T06:30:07;78.22;;;71.80;;
10979;SDS011;5543;51.734;8.744;2022-07-03T06:32:36;70.50;;;64.82;;
10979;SDS011;5543;51.734;8.744;2022-07-03T06:35:04;75.93;;;70.72;;
10979;SDS011;5543;51.734;8.744;2022-07-03T06:37:33;81.05;;;74.82;;
10979;SDS011;5543;51.734;8.744;2022-07-03T06:40:03;69.13;;;64.15;;
10979;SDS011;5543;51.734;8.744;2022-07-03T06:42:32;61.78;;;57.17;;
10979;SDS011;5543;51.734;8.744;2022-07-03T06:45:01;59.42;;;54.78;;
10979;SDS011;5543;51.734;8.744;2022-07-03T06:47:29;61.97;;;57.40;;
10979;SDS011;5543;51.734;8.744;2022-07-03T06:49:57;48.22;;;45.38;;
10979;SDS011;5543;51.734;8.744;2022-07-03T06:52:25;48.83;;;45.45;;
10979;SDS011;5543;51.734;8.744;2022-07-03T06:54:53;50.55;;;47.05;;
10979;SDS011;5543;51.734;8.744;2022-07-03T06:57:23;56.20;;;51.88;;
10979;SDS011;5543;51.734;8.744;2022-07-03T06:59:51;54.45;;;50.47;;
10979;SDS011;5543;51.734;8.744;2022-07-03T07:02:19;54.58;;;50.50;;
10979;SDS011;5543;51.734;8.744;2022-07-03T07:04:47;41.50;;;38.45;;
10979;SDS011;5543;51.734;8.744;2022-07-03T07:07:15;48.60;;;45.13;;
10979;SDS011;5543;51.734;8.744;2022-07-03T07:09:43;51.85;;;47.92;;
10979;SDS011;5543;51.734;8.744;2022-07-03T07:12:12;46.28;;;42.63;;
10979;SDS011;5543;51.734;8.744;2022-07-03T07:14:41;45.78;;;42.47;;
10979;SDS011;5543;51.734;8.744;2022-07-03T07:17:09;46.08;;;42.95;;
10979;SDS011;5543;51.734;8.744;2022-07-03T07:19:37;45.83;;;43.00;;
10979;SDS011;5543;51.734;8.744;2022-07-03T07:22:05;44.75;;;41.45;;
10979;SDS011;5543;51.734;8.744;2022-07-03T07:24:34;46.15;;;43.15;;
10979;SDS011;5543;51.734;8.744;2022-07-03T07:27:02;41.42;;;38.65;;
10979;SDS011;5543;51.734;8.744;2022-07-03T07:29:31;52.45;;;49.25;;
10979;SDS011;5543;51.734;8.744;2022-07-03T07:32:00;33.20;;;31.20;;
10979;SDS011;5543;51.734;8.744;2022-07-03T07:34:28;39.92;;;37.35;;
10979;SDS011;5543;51.734;8.744;2022-07-03T07:36:56;41.22;;;38.30;;
10979;SDS011;5543;51.734;8.744;2022-07-03T07:39:25;45.05;;;41.72;;
10979;SDS011;5543;51.734;8.744;2022-07-03T07:41:53;37.25;;;34.97;;
10979;SDS011;5543;51.734;8.744;2022-07-03T07:44:21;30.17;;;28.23;;
10979;SDS011;5543;51.734;8.744;2022-07-03T07:46:49;38.22;;;35.65;;
10979;SDS011;5543;51.734;8.744;2022-07-03T07:49:18;31.52;;;29.48;;
10979;SDS011;5543;51.734;8.744;2022-07-03T07:51:46;32.35;;;30.08;;
10979;SDS011;5543;51.734;8.744;2022-07-03T07:54:15;33.83;;;31.48;;
10979;SDS011;5543;51.734;8.744;2022-07-03T07:56:43;37.05;;;34.45;;
10979;SDS011;5543;51.734;8.744;2022-07-03T07:59:11;38.58;;;35.90;;
10979;SDS011;5543;51.734;8.744;2022-07-03T08:01:39;28.27;;;26.55;;
10979;SDS011;5543;51.734;8.744;2022-07-03T08:04:26;33.90;;;31.70;;
10979;SDS011;5543;51.734;8.744;2022-07-03T08:07:11;26.70;;;24.95;;
10979;SDS011;5543;51.734;8.744;2022-07-03T08:09:40;27.75;;;25.90;;
10979;SDS011;5543;51.734;8.744;2022-07-03T08:12:08;52.95;;;47.67;;
10979;SDS011;5543;51.734;8.744;2022-07-03T08:14:37;35.60;;;32.20;;
10979;SDS011;5543;51.734;8.744;2022-07-03T08:17:05;37.22;;;34.45;;
10979;SDS011;5543;51.734;8.744;2022-07-03T08:19:35;27.80;;;25.75;;
10979;SDS011;5543;51.734;8.744;2022-07-03T08:22:03;31.30;;;29.30;;
10979;SDS011;5543;51.734;8.744;2022-07-03T08:24:31;30.00;;;27.92;;
10979;SDS011;5543;51.734;8.744;2022-07-03T08:26:59;23.48;;;21.80;;
10979;SDS011;5543;51.734;8.744;2022-07-03T08:29:28;31.38;;;29.35;;
10979;SDS011;5543;51.734;8.744;2022-07-03T08:32:02;34.92;;;32.65;;
10979;SDS011;5543;51.734;8.744;2022-07-03T08:34:30;36.80;;;34.22;;
10979;SDS011;5543;51.734;8.744;2022-07-03T08:37:00;25.40;;;23.83;;
10979;SDS011;5543;51.734;8.744;2022-07-03T08:39:28;23.88;;;22.23;;
10979;SDS011;5543;51.734;8.744;2022-07-03T08:41:56;26.05;;;24.40;;
10979;SDS011;5543;51.734;8.744;2022-07-03T08:44:26;28.20;;;26.33;;
10979;SDS011;5543;51.734;8.744;2022-07-03T08:46:55;22.88;;;21.40;;
10979;SDS011;5543;51.734;8.744;2022-07-03T08:49:23;24.00;;;22.50;;
10979;SDS011;5543;51.734;8.744;2022-07-03T08:51:53;22.58;;;21.27;;
10979;SDS011;5543;51.734;8.744;2022-07-03T08:54:24;17.83;;;16.48;;
10979;SDS011;5543;51.734;8.744;2022-07-03T08:56:52;25.17;;;23.63;;
10979;SDS011;5543;51.734;8.744;2022-07-03T08:59:21;22.48;;;21.08;;
10979;SDS011;5543;51.734;8.744;2022-07-03T09:01:52;16.45;;;15.40;;
10979;SDS011;5543;51.734;8.744;2022-07-03T09:04:21;20.10;;;18.92;;
10979;SDS011;5543;51.734;8.744;2022-07-03T09:06:49;16.95;;;15.90;;
10979;SDS011;5543;51.734;8.744;2022-07-03T09:09:21;33.50;;;30.45;;
10979;SDS011;5543;51.734;8.744;2022-07-03T09:11:51;17.50;;;16.27;;
10979;SDS011;5543;51.734;8.744;2022-07-03T09:14:19;12.32;;;11.52;;
10979;SDS011;5543;51.734;8.744;2022-07-03T09:16:48;13.70;;;12.85;;
10979;SDS011;5543;51.734;8.744;2022-07-03T09:19:18;14.45;;;13.60;;
10979;SDS011;5543;51.734;8.744;2022-07-03T09:22:13;22.33;;;20.77;;
10979;SDS011;5543;51.734;8.744;2022-07-03T09:24:48;16.77;;;15.82;;
10979;SDS011;5543;51.734;8.744;2022-07-03T09:27:17;14.48;;;13.50;;
10979;SDS011;5543;51.734;8.744;2022-07-03T09:29:59;15.50;;;14.60;;
10979;SDS011;5543;51.734;8.744;2022-07-03T09:32:32;20.95;;;19.73;;
10979;SDS011;5543;51.734;8.744;2022-07-03T09:35:17;22.92;;;21.38;;
10979;SDS011;5543;51.734;8.744;2022-07-03T09:37:47;17.95;;;16.67;;
10979;SDS011;5543;51.734;8.744;2022-07-03T09:40:18;19.40;;;18.17;;
10979;SDS011;5543;51.734;8.744;2022-07-03T09:42:59;19.80;;;18.60;;
10979;SDS011;5543;51.734;8.744;2022-07-03T09:45:47;27.02;;;25.40;;
10979;SDS011;5543;51.734;8.744;2022-07-03T09:48:23;22.75;;;21.27;;
10979;SDS011;5543;51.734;8.744;2022-07-03T09:51:12;21.77;;;20.48;;
10979;SDS011;5543;51.734;8.744;2022-07-03T09:53:46;19.60;;;18.40;;
10979;SDS011;5543;51.734;8.744;2022-07-03T09:56:23;18.75;;;17.65;;
10979;SDS011;5543;51.734;8.744;2022-07-03T09:59:03;17.55;;;16.42;;
10979;SDS011;5543;51.734;8.744;2022-07-03T10:01:35;18.48;;;17.35;;
10979;SDS011;5543;51.734;8.744;2022-07-03T10:04:11;17.08;;;15.90;;
10979;SDS011;5543;51.734;8.744;2022-07-03T10:06:47;28.38;;;26.52;;
10979;SDS011;5543;51.734;8.744;2022-07-03T10:09:20;22.90;;;21.48;;
10979;SDS011;5543;51.734;8.744;2022-07-03T10:11:54;15.05;;;14.25;;
10979;SDS011;5543;51.734;8.744;2022-07-03T10:14:23;17.75;;;16.38;;
10979;SDS011;5543;51.734;8.744;2022-07-03T10:16:53;21.65;;;19.58;;
10979;SDS011;5543;51.734;8.744;2022-07-03T10:19:25;18.40;;;17.27;;
10979;SDS011;5543;51.734;8.744;2022-07-03T10:21:55;21.45;;;20.17;;
10979;SDS011;5543;51.734;8.744;2022-07-03T10:24:24;19.45;;;18.38;;
10979;SDS011;5543;51.734;8.744;2022-07-03T10:26:55;19.77;;;18.42;;
10979;SDS011;5543;51.734;8.744;2022-07-03T10:29:26;20.08;;;18.67;;
10979;SDS011;5543;51.734;8.744;2022-07-03T10:31:55;20.25;;;18.98;;
10979;SDS011;5543;51.734;8.744;2022-07-03T10:34:25;23.23;;;21.77;;
10979;SDS011;5543;51.734;8.744;2022-07-03T10:36:55;25.40;;;23.92;;
10979;SDS011;5543;51.734;8.744;2022-07-03T10:39:32;30.60;;;28.75;;
10979;SDS011;5543;51.734;8.744;2022-07-03T10:42:08;21.60;;;20.30;;
10979;SDS011;5543;51.734;8.744;2022-07-03T10:45:05;26.58;;;24.98;;
10979;SDS011;5543;51.734;8.744;2022-07-03T10:47:39;23.50;;;22.15;;
10979;SDS011;5543;51.734;8.744;2022-07-03T10:50:10;24.38;;;22.83;;
10979;SDS011;5543;51.734;8.744;2022-07-03T10:52:39;19.48;;;18.25;;
10979;SDS011;5543;51.734;8.744;2022-07-03T10:55:08;15.40;;;14.32;;
10979;SDS011;5543;51.734;8.744;2022-07-03T10:57:39;19.30;;;18.13;;
10979;SDS011;5543;51.734;8.744;2022-07-03T11:00:12;19.35;;;18.08;;
10979;SDS011;5543;51.734;8.744;2022-07-03T11:02:48;16.92;;;15.95;;
10979;SDS011;5543;51.734;8.744;2022-07-03T11:05:21;25.63;;;23.83;;
10979;SDS011;5543;51.734;8.744;2022-07-03T11:08:06;15.27;;;14.38;;
10979;SDS011;5543;51.734;8.744;2022-07-03T11:10:40;1.40;;;1.27;;
10979;SDS011;5543;51.734;8.744;2022-07-03T11:13:11;11.60;;;10.85;;
10979;SDS011;5543;51.734;8.744;2022-07-03T11:15:43;17.63;;;16.50;;
10979;SDS011;5543;51.734;8.744;2022-07-03T11:18:14;15.10;;;14.15;;
10979;SDS011;5543;51.734;8.744;2022-07-03T11:26:44;20.60;;;19.48;;
10979;SDS011;5543;51.734;8.744;2022-07-03T11:29:27;19.20;;;18.05;;
10979;SDS011;5543;51.734;8.744;2022-07-03T11:31:55;24.38;;;22.90;;
10979;SDS011;5543;51.734;8.744;2022-07-03T11:34:24;18.63;;;17.23;;
10979;SDS011;5543;51.734;8.744;2022-07-03T11:36:52;14.07;;;13.27;;
10979;SDS011;5543;51.734;8.744;2022-07-03T11:39:20;22.23;;;20.77;;
10979;SDS011;5543;51.734;8.744;2022-07-03T11:41:49;22.75;;;21.40;;
10979;SDS011;5543;51.734;8.744;2022-07-03T11:44:18;22.90;;;21.63;;
10979;SDS011;5543;51.734;8.744;2022-07-03T11:46:50;17.33;;;16.25;;
10979;SDS011;5543;51.734;8.744;2022-07-03T11:49:20;16.55;;;15.55;;
10979;SDS011;5543;51.734;8.744;2022-07-03T11:51:58;21.80;;;20.45;;
10979;SDS011;5543;51.734;8.744;2022-07-03T11:54:29;31.90;;;29.15;;
10979;SDS011;5543;51.734;8.744;2022-07-03T11:56:59;21.40;;;19.95;;
10979;SDS011;5543;51.734;8.744;2022-07-03T11:59:28;24.52;;;23.05;;
10979;SDS011;5543;51.734;8.744;2022-07-03T12:02:02;24.77;;;23.23;;
10979;SDS011;5543;51.734;8.744;2022-07-03T12:04:31;22.77;;;21.25;;
10979;SDS011;5543;51.734;8.744;2022-07-03T12:06:59;20.85;;;19.63;;
10979;SDS011;5543;51.734;8.744;2022-07-03T12:09:29;22.20;;;20.92;;
10979;SDS011;5543;51.734;8.744;2022-07-03T12:12:01;23.35;;;21.85;;
10979;SDS011;5543;51.734;8.744;2022-07-03T12:14:38;23.48;;;22.02;;
10979;SDS011;5543;51.734;8.744;2022-07-03T12:17:13;21.60;;;20.33;;
10979;SDS011;5543;51.734;8.744;2022-07-03T12:19:46;26.45;;;24.90;;
10979;SDS011;5543;51.734;8.744;2022-07-03T12:22:22;20.48;;;19.25;;
10979;SDS011;5543;51.734;8.744;2022-07-03T12:24:55;27.08;;;25.23;;
10979;SDS011;5543;51.734;8.744;2022-07-03T12:27:25;20.75;;;19.40;;
10979;SDS011;5543;51.734;8.744;2022-07-03T12:29:53;26.00;;;24.25;;
10979;SDS011;5543;51.734;8.744;2022-07-03T12:32:23;24.50;;;22.75;;
10979;SDS011;5543;51.734;8.744;2022-07-03T12:34:52;21.90;;;20.52;;
10979;SDS011;5543;51.734;8.744;2022-07-03T12:37:30;26.77;;;25.02;;
10979;SDS011;5543;51.734;8.744;2022-07-03T12:40:00;23.50;;;22.02;;
10979;SDS011;5543;51.734;8.744;2022-07-03T12:42:28;24.15;;;22.52;;
10979;SDS011;5543;51.734;8.744;2022-07-03T12:44:57;26.13;;;24.38;;
10979;SDS011;5543;51.734;8.744;2022-07-03T12:47:28;23.20;;;21.55;;
10979;SDS011;5543;51.734;8.744;2022-07-03T12:49:58;21.90;;;20.45;;
10979;SDS011;5543;51.734;8.744;2022-07-03T12:52:27;21.27;;;19.73;;
10979;SDS011;5543;51.734;8.744;2022-07-03T12:54:56;18.48;;;17.45;;
10979;SDS011;5543;51.734;8.744;2022-07-03T12:57:25;20.20;;;19.00;;
10979;SDS011;5543;51.734;8.744;2022-07-03T13:00:13;31.20;;;29.15;;
10979;SDS011;5543;51.734;8.744;2022-07-03T13:02:45;25.50;;;23.85;;
10979;SDS011;5543;51.734;8.744;2022-07-03T13:05:15;29.42;;;27.38;;
10979;SDS011;5543;51.734;8.744;2022-07-03T13:07:46;31.10;;;29.02;;
10979;SDS011;5543;51.734;8.744;2022-07-03T13:10:17;29.70;;;27.85;;
10979;SDS011;5543;51.734;8.744;2022-07-03T13:12:49;22.30;;;20.85;;
10979;SDS011;5543;51.734;8.744;2022-07-03T13:15:18;27.33;;;25.48;;
10979;SDS011;5543;51.734;8.744;2022-07-03T13:17:52;21.10;;;19.73;;
10979;SDS011;5543;51.734;8.744;2022-07-03T13:20:24;27.52;;;25.65;;
10979;SDS011;5543;51.734;8.744;2022-07-03T13:22:55;31.13;;;29.05;;
10979;SDS011;5543;51.734;8.744;2022-07-03T13:25:25;25.55;;;23.27;;
10979;SDS011;5543;51.734;8.744;2022-07-03T13:28:02;30.77;;;28.40;;
10979;SDS011;5543;51.734;8.744;2022-07-03T13:30:31;24.45;;;22.70;;
10979;SDS011;5543;51.734;8.744;2022-07-03T13:33:01;30.13;;;27.58;;
10979;SDS011;5543;51.734;8.744;2022-07-03T13:35:29;26.63;;;24.58;;
10979;SDS011;5543;51.734;8.744;2022-07-03T13:37:57;17.92;;;16.70;;
10979;SDS011;5543;51.734;8.744;2022-07-03T13:40:25;20.40;;;19.20;;
10979;SDS011;5543;51.734;8.744;2022-07-03T13:42:54;23.63;;;22.08;;
10979;SDS011;5543;51.734;8.744;2022-07-03T13:45:22;21.88;;;20.50;;
10979;SDS011;5543;51.734;8.744;2022-07-03T13:47:50;24.17;;;22.52;;
10979;SDS011;5543;51.734;8.744;2022-07-03T13:50:20;24.92;;;23.23;;
10979;SDS011;5543;51.734;8.744;2022-07-03T13:52:48;16.88;;;15.70;;
10979;SDS011;5543;51.734;8.744;2022-07-03T13:55:17;22.92;;;21.13;;
10979;SDS011;5543;51.734;8.744;2022-07-03T13:57:45;16.70;;;15.43;;
10979;SDS011;5543;51.734;8.744;2022-07-03T14:00:14;18.48;;;17.40;;
10979;SDS011;5543;51.734;8.744;2022-07-03T14:02:43;20.33;;;18.83;;
10979;SDS011;5543;51.734;8.744;2022-07-03T14:05:11;20.08;;;18.90;;
10979;SDS011;5543;51.734;8.744;2022-07-03T14:07:41;24.13;;;22.63;;
10979;SDS011;5543;51.734;8.744;2022-07-03T14:10:10;17.60;;;16.42;;
10979;SDS011;5543;51.734;8.744;2022-07-03T14:12:38;19.13;;;17.70;;
10979;SDS011;5543;51.734;8.744;2022-07-03T14:15:09;20.02;;;18.65;;
10979;SDS011;5543;51.734;8.744;2022-07-03T14:17:38;17.30;;;16.13;;
10979;SDS011;5543;51.734;8.744;2022-07-03T14:20:06;16.98;;;15.98;;
10979;SDS011;5543;51.734;8.744;2022-07-03T14:22:35;22.00;;;20.42;;
10979;SDS011;5543;51.734;8.744;2022-07-03T14:25:06;21.95;;;20.60;;
10979;SDS011;5543;51.734;8.744;2022-07-03T14:27:36;21.63;;;20.27;;
10979;SDS011;5543;51.734;8.744;2022-07-03T14:30:21;24.95;;;23.50;;
10979;SDS011;5543;51.734;8.744;2022-07-03T14:33:07;25.85;;;24.10;;
10979;SDS011;5543;51.734;8.744;2022-07-03T14:35:36;20.60;;;19.15;;
10979;SDS011;5543;51.734;8.744;2022-07-03T14:38:04;22.65;;;21.27;;
10979;SDS011;5543;51.734;8.744;2022-07-03T14:40:34;27.25;;;25.50;;
10979;SDS011;5543;51.734;8.744;2022-07-03T14:43:02;27.50;;;25.75;;
10979;SDS011;5543;51.734;8.744;2022-07-03T14:45:30;20.85;;;19.45;;
10979;SDS011;5543;51.734;8.744;2022-07-03T14:47:58;29.55;;;27.33;;
10979;SDS011;5543;51.734;8.744;2022-07-03T14:50:26;22.80;;;21.15;;
10979;SDS011;5543;51.734;8.744;2022-07-03T14:52:54;25.08;;;23.33;;
10979;SDS011;5543;51.734;8.744;2022-07-03T14:55:23;27.02;;;25.17;;